sensor_id;sensor_type;location;lat;lon;timestamp;temperature;humidity
12811;DHT22;6470;47.654;7.896;2023-12-07T00:00:29;3.30;99.90
12811;DHT22;6470;47.654;7.896;2023-12-07T00:05:21;-0.30;99.90
12811;DHT22;6470;47.654;7.896;2023-12-07T00:07:46;2.90;99.90
12811;DHT22;6470;47.654;7.896;2023-12-07T00:10:12;3.10;99.90
12811;DHT22;6470;47.654;7.896;2023-12-07T00:12:37;2.70;99.90
12811;DHT22;6470;47.654;7.896;2023-12-07T00:15:04;3.00;99.90
12811;DHT22;6470;47.654;7.896;2023-12-07T00:19:55;2.50;99.90
12811;DHT22;6470;47.654;7.896;2023-12-07T00:22:21;2.80;99.90
12811;DHT22;6470;47.654;7.896;2023-12-07T00:24:47;3.10;99.90
12811;DHT22;6470;47.654;7.896;2023-12-07T00:27:12;1.90;99.90
12811;DHT22;6470;47.654;7.896;2023-12-07T00:29:38;2.00;99.90
12811;DHT22;6470;47.654;7.896;2023-12-07T00:32:04;2.20;99.90
12811;DHT22;6470;47.654;7.896;2023-12-07T00:34:30;3.10;99.90
12811;DHT22;6470;47.654;7.896;2023-12-07T00:36:56;2.90;99.90
12811;DHT22;6470;47.654;7.896;2023-12-07T00:39:21;2.20;99.90
12811;DHT22;6470;47.654;7.896;2023-12-07T00:44:16;2.60;99.90
12811;DHT22;6470;47.654;7.896;2023-12-07T00:46:42;2.20;99.90
12811;DHT22;6470;47.654;7.896;2023-12-07T00:49:07;-0.90;99.90
12811;DHT22;6470;47.654;7.896;2023-12-07T00:51:33;-0.80;99.90
12811;DHT22;6470;47.654;7.896;2023-12-07T00:53:59;2.80;99.90
12811;DHT22;6470;47.654;7.896;2023-12-07T00:56:25;2.70;99.90
12811;DHT22;6470;47.654;7.896;2023-12-07T00:58:50;2.80;99.90
12811;DHT22;6470;47.654;7.896;2023-12-07T01:06:08;3.00;99.90
12811;DHT22;6470;47.654;7.896;2023-12-07T01:08:36;2.10;99.90
12811;DHT22;6470;47.654;7.896;2023-12-07T01:11:06;2.10;99.90
12811;DHT22;6470;47.654;7.896;2023-12-07T01:13:31;3.00;99.90
12811;DHT22;6470;47.654;7.896;2023-12-07T01:15:57;2.50;99.90
12811;DHT22;6470;47.654;7.896;2023-12-07T01:20:49;2.20;99.90
12811;DHT22;6470;47.654;7.896;2023-12-07T01:25:41;2.50;99.90
12811;DHT22;6470;47.654;7.896;2023-12-07T01:28:06;2.50;99.90
12811;DHT22;6470;47.654;7.896;2023-12-07T01:30:32;1.90;99.90
12811;DHT22;6470;47.654;7.896;2023-12-07T01:32:57;2.50;99.90
12811;DHT22;6470;47.654;7.896;2023-12-07T01:35:23;2.90;99.90
12811;DHT22;6470;47.654;7.896;2023-12-07T01:37:49;2.90;99.90
12811;DHT22;6470;47.654;7.896;2023-12-07T01:40:15;2.50;99.90
12811;DHT22;6470;47.654;7.896;2023-12-07T01:42:48;-1.60;99.90
12811;DHT22;6470;47.654;7.896;2023-12-07T01:45:14;2.50;99.90
12811;DHT22;6470;47.654;7.896;2023-12-07T01:47:41;2.80;99.90
12811;DHT22;6470;47.654;7.896;2023-12-07T01:50:08;1.20;99.90
12811;DHT22;6470;47.654;7.896;2023-12-07T01:52:40;-1.50;99.90
12811;DHT22;6470;47.654;7.896;2023-12-07T01:55:07;2.30;99.90
12811;DHT22;6470;47.654;7.896;2023-12-07T01:57:35;-1.40;99.90
12811;DHT22;6470;47.654;7.896;2023-12-07T02:00:01;2.60;99.90
12811;DHT22;6470;47.654;7.896;2023-12-07T02:04:54;2.40;99.90
12811;DHT22;6470;47.654;7.896;2023-12-07T02:07:20;2.30;99.90
12811;DHT22;6470;47.654;7.896;2023-12-07T02:09:47;-1.90;99.90
12811;DHT22;6470;47.654;7.896;2023-12-07T02:22:43;0.10;99.90
12811;DHT22;6470;47.654;7.896;2023-12-07T02:25:14;1.90;99.90
12811;DHT22;6470;47.654;7.896;2023-12-07T02:27:44;0.10;99.90
12811;DHT22;6470;47.654;7.896;2023-12-07T02:32:40;2.00;99.90
12811;DHT22;6470;47.654;7.896;2023-12-07T02:35:08;2.50;99.90
12811;DHT22;6470;47.654;7.896;2023-12-07T02:37:50;1.80;99.90
12811;DHT22;6470;47.654;7.896;2023-12-07T02:40:24;2.30;99.90
12811;DHT22;6470;47.654;7.896;2023-12-07T02:42:52;0.00;99.90
12811;DHT22;6470;47.654;7.896;2023-12-07T02:45:18;2.10;99.90
12811;DHT22;6470;47.654;7.896;2023-12-07T02:47:44;2.80;99.90
12811;DHT22;6470;47.654;7.896;2023-12-07T02:50:11;1.80;99.90
12811;DHT22;6470;47.654;7.896;2023-12-07T02:52:37;2.30;99.90
12811;DHT22;6470;47.654;7.896;2023-12-07T02:55:03;2.40;99.90
12811;DHT22;6470;47.654;7.896;2023-12-07T02:59:56;2.50;99.90
12811;DHT22;6470;47.654;7.896;2023-12-07T03:02:22;2.20;99.90
12811;DHT22;6470;47.654;7.896;2023-12-07T03:04:47;2.40;99.90
12811;DHT22;6470;47.654;7.896;2023-12-07T03:07:13;2.80;99.90
12811;DHT22;6470;47.654;7.896;2023-12-07T03:09:39;-1.90;99.90
12811;DHT22;6470;47.654;7.896;2023-12-07T03:12:05;1.90;99.90
12811;DHT22;6470;47.654;7.896;2023-12-07T03:14:31;2.10;99.90
12811;DHT22;6470;47.654;7.896;2023-12-07T03:21:49;2.00;99.90
12811;DHT22;6470;47.654;7.896;2023-12-07T03:24:15;2.70;99.90
12811;DHT22;6470;47.654;7.896;2023-12-07T03:29:07;2.10;99.90
12811;DHT22;6470;47.654;7.896;2023-12-07T03:31:32;2.50;99.90
12811;DHT22;6470;47.654;7.896;2023-12-07T03:33:58;2.20;99.90
12811;DHT22;6470;47.654;7.896;2023-12-07T03:36:26;2.40;99.90
12811;DHT22;6470;47.654;7.896;2023-12-07T03:38:52;2.20;99.90
12811;DHT22;6470;47.654;7.896;2023-12-07T03:41:18;2.20;99.90
12811;DHT22;6470;47.654;7.896;2023-12-07T03:43:44;2.60;99.90
12811;DHT22;6470;47.654;7.896;2023-12-07T03:46:10;2.70;99.90
12811;DHT22;6470;47.654;7.896;2023-12-07T03:51:01;2.60;99.90
12811;DHT22;6470;47.654;7.896;2023-12-07T03:55:55;1.80;99.90
12811;DHT22;6470;47.654;7.896;2023-12-07T03:58:20;2.40;99.90
12811;DHT22;6470;47.654;7.896;2023-12-07T04:03:12;1.90;99.90
12811;DHT22;6470;47.654;7.896;2023-12-07T04:08:05;-1.80;99.90
12811;DHT22;6470;47.654;7.896;2023-12-07T04:10:31;2.00;99.90
12811;DHT22;6470;47.654;7.896;2023-12-07T04:12:57;-1.70;99.90
12811;DHT22;6470;47.654;7.896;2023-12-07T04:15:22;2.20;99.90
12811;DHT22;6470;47.654;7.896;2023-12-07T04:17:48;2.00;99.90
12811;DHT22;6470;47.654;7.896;2023-12-07T04:22:40;2.50;99.90
12811;DHT22;6470;47.654;7.896;2023-12-07T04:25:07;-1.90;99.90
12811;DHT22;6470;47.654;7.896;2023-12-07T04:27:33;-1.90;99.90
12811;DHT22;6470;47.654;7.896;2023-12-07T04:29:59;2.00;99.90
12811;DHT22;6470;47.654;7.896;2023-12-07T04:32:25;-1.90;99.90
12811;DHT22;6470;47.654;7.896;2023-12-07T04:34:51;2.50;99.90
12811;DHT22;6470;47.654;7.896;2023-12-07T04:37:17;2.80;99.90
12811;DHT22;6470;47.654;7.896;2023-12-07T04:39:43;-2.20;99.90
12811;DHT22;6470;47.654;7.896;2023-12-07T04:42:09;2.30;99.90
12811;DHT22;6470;47.654;7.896;2023-12-07T04:44:34;2.50;99.90
12811;DHT22;6470;47.654;7.896;2023-12-07T04:47:00;2.40;99.90
12811;DHT22;6470;47.654;7.896;2023-12-07T04:49:26;2.10;99.90
12811;DHT22;6470;47.654;7.896;2023-12-07T04:51:52;2.40;99.90
12811;DHT22;6470;47.654;7.896;2023-12-07T04:54:17;2.30;99.90
12811;DHT22;6470;47.654;7.896;2023-12-07T04:56:44;2.50;99.90
12811;DHT22;6470;47.654;7.896;2023-12-07T04:59:10;2.40;99.90
12811;DHT22;6470;47.654;7.896;2023-12-07T05:01:36;1.70;99.90
12811;DHT22;6470;47.654;7.896;2023-12-07T05:04:03;2.60;99.90
12811;DHT22;6470;47.654;7.896;2023-12-07T05:06:30;2.30;99.90
12811;DHT22;6470;47.654;7.896;2023-12-07T05:08:55;-1.60;99.90
12811;DHT22;6470;47.654;7.896;2023-12-07T05:11:21;2.90;99.90
12811;DHT22;6470;47.654;7.896;2023-12-07T05:13:47;-2.10;99.90
12811;DHT22;6470;47.654;7.896;2023-12-07T05:16:13;2.60;99.90
12811;DHT22;6470;47.654;7.896;2023-12-07T05:18:40;-1.50;99.90
12811;DHT22;6470;47.654;7.896;2023-12-07T05:21:06;2.40;99.90
12811;DHT22;6470;47.654;7.896;2023-12-07T05:23:32;-1.90;99.90
12811;DHT22;6470;47.654;7.896;2023-12-07T05:28:23;1.70;99.90
12811;DHT22;6470;47.654;7.896;2023-12-07T05:30:49;2.30;99.90
12811;DHT22;6470;47.654;7.896;2023-12-07T05:33:15;2.30;99.90
12811;DHT22;6470;47.654;7.896;2023-12-07T05:35:41;-1.70;99.90
12811;DHT22;6470;47.654;7.896;2023-12-07T05:38:07;2.30;99.90
12811;DHT22;6470;47.654;7.896;2023-12-07T05:40:32;2.70;99.90
12811;DHT22;6470;47.654;7.896;2023-12-07T05:45:25;-2.00;99.90
12811;DHT22;6470;47.654;7.896;2023-12-07T05:52:43;-1.30;99.90
12811;DHT22;6470;47.654;7.896;2023-12-07T05:55:09;-2.00;99.90
12811;DHT22;6470;47.654;7.896;2023-12-07T05:57:35;-1.70;99.90
12811;DHT22;6470;47.654;7.896;2023-12-07T06:00:01;-1.80;99.90
12811;DHT22;6470;47.654;7.896;2023-12-07T06:02:26;-2.30;99.90
12811;DHT22;6470;47.654;7.896;2023-12-07T06:04:53;-2.30;99.90
12811;DHT22;6470;47.654;7.896;2023-12-07T06:07:18;-1.30;99.90
12811;DHT22;6470;47.654;7.896;2023-12-07T06:09:44;-1.20;99.90
12811;DHT22;6470;47.654;7.896;2023-12-07T06:12:10;-1.90;99.90
12811;DHT22;6470;47.654;7.896;2023-12-07T06:14:35;-1.90;99.90
12811;DHT22;6470;47.654;7.896;2023-12-07T06:17:01;-0.70;99.90
12811;DHT22;6470;47.654;7.896;2023-12-07T06:26:48;-1.20;99.90
12811;DHT22;6470;47.654;7.896;2023-12-07T06:29:14;-1.00;99.90
12811;DHT22;6470;47.654;7.896;2023-12-07T06:31:43;-1.10;99.90
12811;DHT22;6470;47.654;7.896;2023-12-07T06:34:09;-1.90;99.90
12811;DHT22;6470;47.654;7.896;2023-12-07T06:36:34;-1.20;99.90
12811;DHT22;6470;47.654;7.896;2023-12-07T06:39:02;-1.30;99.90
12811;DHT22;6470;47.654;7.896;2023-12-07T06:41:28;-1.90;99.90
12811;DHT22;6470;47.654;7.896;2023-12-07T06:46:20;-1.60;99.90
12811;DHT22;6470;47.654;7.896;2023-12-07T06:48:46;-1.80;99.90
12811;DHT22;6470;47.654;7.896;2023-12-07T06:51:12;-1.50;99.90
12811;DHT22;6470;47.654;7.896;2023-12-07T06:53:41;-1.70;99.90
12811;DHT22;6470;47.654;7.896;2023-12-07T06:56:08;-1.40;99.90
12811;DHT22;6470;47.654;7.896;2023-12-07T06:58:34;-1.60;99.90
12811;DHT22;6470;47.654;7.896;2023-12-07T07:05:54;-1.60;99.90
12811;DHT22;6470;47.654;7.896;2023-12-07T07:13:14;-2.00;99.90
12811;DHT22;6470;47.654;7.896;2023-12-07T07:15:42;-1.60;99.90
12811;DHT22;6470;47.654;7.896;2023-12-07T07:18:11;-2.10;99.90
12811;DHT22;6470;47.654;7.896;2023-12-07T07:23:03;-1.40;99.90
12811;DHT22;6470;47.654;7.896;2023-12-07T07:25:28;-1.30;99.90
12811;DHT22;6470;47.654;7.896;2023-12-07T07:30:21;-1.70;99.90
12811;DHT22;6470;47.654;7.896;2023-12-07T07:32:47;-1.60;99.90
12811;DHT22;6470;47.654;7.896;2023-12-07T07:35:12;-1.40;99.90
12811;DHT22;6470;47.654;7.896;2023-12-07T07:37:39;-1.20;99.90
12811;DHT22;6470;47.654;7.896;2023-12-07T07:40:05;-1.80;99.90
12811;DHT22;6470;47.654;7.896;2023-12-07T07:42:33;-1.50;99.90
12811;DHT22;6470;47.654;7.896;2023-12-07T07:44:59;-1.50;99.90
12811;DHT22;6470;47.654;7.896;2023-12-07T07:47:25;-1.20;99.90
12811;DHT22;6470;47.654;7.896;2023-12-07T07:49:50;-1.40;99.90
12811;DHT22;6470;47.654;7.896;2023-12-07T07:52:16;-1.30;99.90
12811;DHT22;6470;47.654;7.896;2023-12-07T07:54:42;-1.20;99.90
12811;DHT22;6470;47.654;7.896;2023-12-07T07:57:08;-1.00;99.90
12811;DHT22;6470;47.654;7.896;2023-12-07T07:59:34;-1.60;99.90
12811;DHT22;6470;47.654;7.896;2023-12-07T08:04:25;-1.80;99.90
12811;DHT22;6470;47.654;7.896;2023-12-07T08:06:51;-1.10;99.90
12811;DHT22;6470;47.654;7.896;2023-12-07T08:09:16;2.20;99.90
12811;DHT22;6470;47.654;7.896;2023-12-07T08:11:42;2.40;99.90
12811;DHT22;6470;47.654;7.896;2023-12-07T08:14:08;2.20;99.90
12811;DHT22;6470;47.654;7.896;2023-12-07T08:16:34;1.90;99.90
12811;DHT22;6470;47.654;7.896;2023-12-07T08:21:26;2.70;99.90
12811;DHT22;6470;47.654;7.896;2023-12-07T08:23:51;2.40;99.90
12811;DHT22;6470;47.654;7.896;2023-12-07T08:26:17;2.60;99.90
12811;DHT22;6470;47.654;7.896;2023-12-07T08:28:44;2.40;99.90
12811;DHT22;6470;47.654;7.896;2023-12-07T08:31:10;-1.80;99.90
12811;DHT22;6470;47.654;7.896;2023-12-07T08:33:36;2.90;99.90
12811;DHT22;6470;47.654;7.896;2023-12-07T08:36:05;2.30;99.90
12811;DHT22;6470;47.654;7.896;2023-12-07T08:38:32;-1.90;99.90
12811;DHT22;6470;47.654;7.896;2023-12-07T08:40:57;2.60;99.90
12811;DHT22;6470;47.654;7.896;2023-12-07T08:43:24;2.40;99.90
12811;DHT22;6470;47.654;7.896;2023-12-07T08:45:53;2.70;99.90
12811;DHT22;6470;47.654;7.896;2023-12-07T08:48:22;1.50;99.90
12811;DHT22;6470;47.654;7.896;2023-12-07T08:50:48;2.80;99.90
12811;DHT22;6470;47.654;7.896;2023-12-07T08:53:13;2.60;99.90
12811;DHT22;6470;47.654;7.896;2023-12-07T08:55:39;2.40;99.90
12811;DHT22;6470;47.654;7.896;2023-12-07T09:00:32;-0.70;99.90
12811;DHT22;6470;47.654;7.896;2023-12-07T09:02:58;-0.60;99.90
12811;DHT22;6470;47.654;7.896;2023-12-07T09:05:26;-0.70;99.90
12811;DHT22;6470;47.654;7.896;2023-12-07T09:07:52;-0.80;99.90
12811;DHT22;6470;47.654;7.896;2023-12-07T09:10:19;2.90;99.90
12811;DHT22;6470;47.654;7.896;2023-12-07T09:12:45;3.00;99.90
12811;DHT22;6470;47.654;7.896;2023-12-07T09:15:11;2.70;99.90
12811;DHT22;6470;47.654;7.896;2023-12-07T09:17:40;2.90;99.90
12811;DHT22;6470;47.654;7.896;2023-12-07T09:20:08;-0.20;99.90
12811;DHT22;6470;47.654;7.896;2023-12-07T09:22:46;3.10;99.90
12811;DHT22;6470;47.654;7.896;2023-12-07T09:27:40;2.90;99.90
12811;DHT22;6470;47.654;7.896;2023-12-07T09:30:09;3.20;99.90
12811;DHT22;6470;47.654;7.896;2023-12-07T09:32:39;3.50;99.90
12811;DHT22;6470;47.654;7.896;2023-12-07T09:35:05;3.70;99.90
12811;DHT22;6470;47.654;7.896;2023-12-07T09:37:33;3.80;99.90
12811;DHT22;6470;47.654;7.896;2023-12-07T09:40:00;3.40;99.90
12811;DHT22;6470;47.654;7.896;2023-12-07T09:42:26;3.70;99.90
12811;DHT22;6470;47.654;7.896;2023-12-07T09:47:18;3.90;99.90
12811;DHT22;6470;47.654;7.896;2023-12-07T09:49:44;3.50;99.90
12811;DHT22;6470;47.654;7.896;2023-12-07T09:52:10;3.20;99.90
12811;DHT22;6470;47.654;7.896;2023-12-07T09:54:41;3.50;99.90
12811;DHT22;6470;47.654;7.896;2023-12-07T09:59:35;3.30;99.90
12811;DHT22;6470;47.654;7.896;2023-12-07T10:02:02;4.30;99.90
12811;DHT22;6470;47.654;7.896;2023-12-07T10:06:56;4.40;99.90
12811;DHT22;6470;47.654;7.896;2023-12-07T10:09:21;4.30;99.90
12811;DHT22;6470;47.654;7.896;2023-12-07T10:14:14;3.90;99.90
12811;DHT22;6470;47.654;7.896;2023-12-07T10:16:53;4.30;99.90
12811;DHT22;6470;47.654;7.896;2023-12-07T10:19:22;0.80;99.90
12811;DHT22;6470;47.654;7.896;2023-12-07T10:21:48;4.20;99.90
12811;DHT22;6470;47.654;7.896;2023-12-07T10:24:16;3.90;99.90
12811;DHT22;6470;47.654;7.896;2023-12-07T10:26:44;3.70;99.90
12811;DHT22;6470;47.654;7.896;2023-12-07T10:29:10;3.70;99.90
12811;DHT22;6470;47.654;7.896;2023-12-07T10:31:39;4.70;99.90
12811;DHT22;6470;47.654;7.896;2023-12-07T10:34:06;4.30;99.90
12811;DHT22;6470;47.654;7.896;2023-12-07T10:36:32;4.80;99.90
12811;DHT22;6470;47.654;7.896;2023-12-07T10:38:58;4.20;99.90
12811;DHT22;6470;47.654;7.896;2023-12-07T10:41:25;4.70;99.90
12811;DHT22;6470;47.654;7.896;2023-12-07T10:44:00;4.70;99.90
12811;DHT22;6470;47.654;7.896;2023-12-07T10:46:27;4.80;99.90
12811;DHT22;6470;47.654;7.896;2023-12-07T10:49:01;4.60;99.90
12811;DHT22;6470;47.654;7.896;2023-12-07T10:51:40;5.40;99.90
12811;DHT22;6470;47.654;7.896;2023-12-07T10:54:07;5.20;99.90
12811;DHT22;6470;47.654;7.896;2023-12-07T10:56:44;5.70;99.90
12811;DHT22;6470;47.654;7.896;2023-12-07T10:59:12;5.20;99.90
12811;DHT22;6470;47.654;7.896;2023-12-07T11:01:40;5.90;99.90
12811;DHT22;6470;47.654;7.896;2023-12-07T11:04:11;6.10;99.90
12811;DHT22;6470;47.654;7.896;2023-12-07T11:09:10;5.80;99.90
12811;DHT22;6470;47.654;7.896;2023-12-07T11:11:54;5.00;99.90
12811;DHT22;6470;47.654;7.896;2023-12-07T11:14:20;4.70;99.90
12811;DHT22;6470;47.654;7.896;2023-12-07T11:16:47;4.90;99.90
12811;DHT22;6470;47.654;7.896;2023-12-07T11:22:10;5.10;99.90
12811;DHT22;6470;47.654;7.896;2023-12-07T11:27:02;4.40;99.90
12811;DHT22;6470;47.654;7.896;2023-12-07T11:29:29;4.60;99.90
12811;DHT22;6470;47.654;7.896;2023-12-07T11:32:21;5.60;99.90
12811;DHT22;6470;47.654;7.896;2023-12-07T11:34:47;5.80;99.90
12811;DHT22;6470;47.654;7.896;2023-12-07T11:37:15;5.20;99.90
12811;DHT22;6470;47.654;7.896;2023-12-07T11:39:42;5.60;99.90
12811;DHT22;6470;47.654;7.896;2023-12-07T11:42:12;5.70;99.90
12811;DHT22;6470;47.654;7.896;2023-12-07T11:44:40;5.40;99.90
12811;DHT22;6470;47.654;7.896;2023-12-07T11:47:07;5.80;99.90
12811;DHT22;6470;47.654;7.896;2023-12-07T11:49:33;5.60;99.90
12811;DHT22;6470;47.654;7.896;2023-12-07T11:51:59;5.70;99.90
12811;DHT22;6470;47.654;7.896;2023-12-07T11:54:28;5.80;99.90
12811;DHT22;6470;47.654;7.896;2023-12-07T11:56:57;5.20;99.90
12811;DHT22;6470;47.654;7.896;2023-12-07T11:59:23;6.40;99.90
12811;DHT22;6470;47.654;7.896;2023-12-07T12:01:52;5.70;99.90
12811;DHT22;6470;47.654;7.896;2023-12-07T12:04:18;5.70;99.90
12811;DHT22;6470;47.654;7.896;2023-12-07T12:06:44;3.00;99.90
12811;DHT22;6470;47.654;7.896;2023-12-07T12:09:15;6.80;99.90
12811;DHT22;6470;47.654;7.896;2023-12-07T12:11:49;6.60;99.90
12811;DHT22;6470;47.654;7.896;2023-12-07T12:14:18;6.50;99.90
12811;DHT22;6470;47.654;7.896;2023-12-07T12:16:46;6.00;99.90
12811;DHT22;6470;47.654;7.896;2023-12-07T12:19:12;6.20;99.90
12811;DHT22;6470;47.654;7.896;2023-12-07T12:21:40;6.80;99.90
12811;DHT22;6470;47.654;7.896;2023-12-07T12:24:12;6.30;99.90
12811;DHT22;6470;47.654;7.896;2023-12-07T12:26:42;6.60;99.90
12811;DHT22;6470;47.654;7.896;2023-12-07T12:29:08;6.20;99.90
12811;DHT22;6470;47.654;7.896;2023-12-07T12:31:38;5.90;99.90
12811;DHT22;6470;47.654;7.896;2023-12-07T12:34:06;5.90;99.90
12811;DHT22;6470;47.654;7.896;2023-12-07T12:36:32;5.70;99.90
12811;DHT22;6470;47.654;7.896;2023-12-07T12:41:24;6.10;99.90
12811;DHT22;6470;47.654;7.896;2023-12-07T12:43:51;5.40;99.90
12811;DHT22;6470;47.654;7.896;2023-12-07T12:46:17;5.60;99.90
12811;DHT22;6470;47.654;7.896;2023-12-07T12:51:19;5.70;99.90
12811;DHT22;6470;47.654;7.896;2023-12-07T12:53:45;2.50;99.90
12811;DHT22;6470;47.654;7.896;2023-12-07T12:56:15;4.80;99.90
12811;DHT22;6470;47.654;7.896;2023-12-07T13:01:07;5.30;99.90
12811;DHT22;6470;47.654;7.896;2023-12-07T13:03:33;5.20;99.90
12811;DHT22;6470;47.654;7.896;2023-12-07T13:05:59;5.00;99.90
12811;DHT22;6470;47.654;7.896;2023-12-07T13:08:24;5.00;99.90
12811;DHT22;6470;47.654;7.896;2023-12-07T13:10:50;5.50;99.90
12811;DHT22;6470;47.654;7.896;2023-12-07T13:13:16;2.10;99.90
12811;DHT22;6470;47.654;7.896;2023-12-07T13:15:42;5.30;99.90
12811;DHT22;6470;47.654;7.896;2023-12-07T13:18:08;5.00;99.90
12811;DHT22;6470;47.654;7.896;2023-12-07T13:20:36;5.00;99.90
12811;DHT22;6470;47.654;7.896;2023-12-07T13:23:02;4.80;99.90
12811;DHT22;6470;47.654;7.896;2023-12-07T13:27:54;5.30;99.90
12811;DHT22;6470;47.654;7.896;2023-12-07T13:30:20;5.30;99.90
12811;DHT22;6470;47.654;7.896;2023-12-07T13:35:13;5.10;99.90
12811;DHT22;6470;47.654;7.896;2023-12-07T13:37:39;4.60;99.90
12811;DHT22;6470;47.654;7.896;2023-12-07T13:40:05;5.20;99.90
12811;DHT22;6470;47.654;7.896;2023-12-07T13:42:36;5.00;99.90
12811;DHT22;6470;47.654;7.896;2023-12-07T13:45:02;2.30;99.90
12811;DHT22;6470;47.654;7.896;2023-12-07T13:49:58;5.50;99.90
12811;DHT22;6470;47.654;7.896;2023-12-07T13:52:24;4.60;99.90
12811;DHT22;6470;47.654;7.896;2023-12-07T13:54:50;4.30;99.90
12811;DHT22;6470;47.654;7.896;2023-12-07T13:57:16;2.10;99.90
12811;DHT22;6470;47.654;7.896;2023-12-07T14:02:08;5.20;99.90
12811;DHT22;6470;47.654;7.896;2023-12-07T14:04:34;4.70;99.90
12811;DHT22;6470;47.654;7.896;2023-12-07T14:07:14;4.10;99.90
12811;DHT22;6470;47.654;7.896;2023-12-07T14:09:41;4.70;99.90
12811;DHT22;6470;47.654;7.896;2023-12-07T14:12:08;4.30;99.90
12811;DHT22;6470;47.654;7.896;2023-12-07T14:14:36;4.50;99.90
12811;DHT22;6470;47.654;7.896;2023-12-07T14:17:02;4.30;99.90
12811;DHT22;6470;47.654;7.896;2023-12-07T14:21:54;3.50;99.90
12811;DHT22;6470;47.654;7.896;2023-12-07T14:24:22;3.40;99.90
12811;DHT22;6470;47.654;7.896;2023-12-07T14:26:48;3.80;99.90
12811;DHT22;6470;47.654;7.896;2023-12-07T14:31:44;4.00;99.90
12811;DHT22;6470;47.654;7.896;2023-12-07T14:34:10;3.30;99.90
12811;DHT22;6470;47.654;7.896;2023-12-07T14:36:36;3.80;99.90
12811;DHT22;6470;47.654;7.896;2023-12-07T14:39:04;3.30;99.90
12811;DHT22;6470;47.654;7.896;2023-12-07T14:43:58;3.20;99.90
12811;DHT22;6470;47.654;7.896;2023-12-07T14:46:24;3.00;99.90
12811;DHT22;6470;47.654;7.896;2023-12-07T14:48:49;3.40;99.90
12811;DHT22;6470;47.654;7.896;2023-12-07T14:51:19;3.40;99.90
12811;DHT22;6470;47.654;7.896;2023-12-07T14:53:46;3.10;99.90
12811;DHT22;6470;47.654;7.896;2023-12-07T14:56:12;3.70;99.90
12811;DHT22;6470;47.654;7.896;2023-12-07T15:01:08;3.30;99.90
12811;DHT22;6470;47.654;7.896;2023-12-07T15:03:34;0.60;99.90
12811;DHT22;6470;47.654;7.896;2023-12-07T15:06:00;2.70;99.90
12811;DHT22;6470;47.654;7.896;2023-12-07T15:10:52;3.10;99.90
12811;DHT22;6470;47.654;7.896;2023-12-07T15:13:20;3.50;99.90
12811;DHT22;6470;47.654;7.896;2023-12-07T15:15:46;3.60;99.90
12811;DHT22;6470;47.654;7.896;2023-12-07T15:20:37;3.60;99.90
12811;DHT22;6470;47.654;7.896;2023-12-07T15:23:03;3.00;99.90
12811;DHT22;6470;47.654;7.896;2023-12-07T15:30:27;3.30;99.90
12811;DHT22;6470;47.654;7.896;2023-12-07T15:32:55;2.50;99.90
12811;DHT22;6470;47.654;7.896;2023-12-07T15:37:46;2.90;99.90
12811;DHT22;6470;47.654;7.896;2023-12-07T15:40:12;2.80;99.90
12811;DHT22;6470;47.654;7.896;2023-12-07T15:42:38;2.80;99.90
12811;DHT22;6470;47.654;7.896;2023-12-07T15:45:08;2.90;99.90
12811;DHT22;6470;47.654;7.896;2023-12-07T15:47:34;2.70;99.90
12811;DHT22;6470;47.654;7.896;2023-12-07T15:50:00;-0.30;99.90
12811;DHT22;6470;47.654;7.896;2023-12-07T15:52:26;-0.30;99.90
12811;DHT22;6470;47.654;7.896;2023-12-07T15:54:52;3.20;99.90
12811;DHT22;6470;47.654;7.896;2023-12-07T15:59:44;2.30;99.90
12811;DHT22;6470;47.654;7.896;2023-12-07T16:02:10;2.70;99.90
12811;DHT22;6470;47.654;7.896;2023-12-07T16:04:37;2.10;99.90
12811;DHT22;6470;47.654;7.896;2023-12-07T16:07:05;2.00;99.90
12811;DHT22;6470;47.654;7.896;2023-12-07T16:09:31;2.10;99.90
12811;DHT22;6470;47.654;7.896;2023-12-07T16:11:58;2.20;99.90
12811;DHT22;6470;47.654;7.896;2023-12-07T16:14:24;2.20;99.90
12811;DHT22;6470;47.654;7.896;2023-12-07T16:16:50;2.90;99.90
12811;DHT22;6470;47.654;7.896;2023-12-07T16:19:16;2.50;99.90
12811;DHT22;6470;47.654;7.896;2023-12-07T16:21:42;2.60;99.90
12811;DHT22;6470;47.654;7.896;2023-12-07T16:24:08;2.90;99.90
12811;DHT22;6470;47.654;7.896;2023-12-07T16:26:39;-1.20;99.90
12811;DHT22;6470;47.654;7.896;2023-12-07T16:29:05;2.80;99.90
12811;DHT22;6470;47.654;7.896;2023-12-07T16:31:31;2.90;99.90
12811;DHT22;6470;47.654;7.896;2023-12-07T16:33:57;2.80;99.90
12811;DHT22;6470;47.654;7.896;2023-12-07T16:36:23;-1.20;99.90
12811;DHT22;6470;47.654;7.896;2023-12-07T16:38:50;2.50;99.90
12811;DHT22;6470;47.654;7.896;2023-12-07T16:41:16;2.70;99.90
12811;DHT22;6470;47.654;7.896;2023-12-07T16:43:42;3.00;99.90
12811;DHT22;6470;47.654;7.896;2023-12-07T16:46:08;2.30;99.90
12811;DHT22;6470;47.654;7.896;2023-12-07T16:48:34;2.10;99.90
12811;DHT22;6470;47.654;7.896;2023-12-07T16:51:00;2.90;99.90
12811;DHT22;6470;47.654;7.896;2023-12-07T16:53:26;-1.60;99.90
12811;DHT22;6470;47.654;7.896;2023-12-07T16:55:52;2.30;99.90
12811;DHT22;6470;47.654;7.896;2023-12-07T16:58:18;2.70;99.90
12811;DHT22;6470;47.654;7.896;2023-12-07T17:00:45;2.70;99.90
12811;DHT22;6470;47.654;7.896;2023-12-07T17:03:10;2.60;99.90
12811;DHT22;6470;47.654;7.896;2023-12-07T17:05:37;1.80;99.90
12811;DHT22;6470;47.654;7.896;2023-12-07T17:08:03;2.30;99.90
12811;DHT22;6470;47.654;7.896;2023-12-07T17:12:55;2.20;99.90
12811;DHT22;6470;47.654;7.896;2023-12-07T17:15:20;2.90;99.90
12811;DHT22;6470;47.654;7.896;2023-12-07T17:17:46;2.70;99.90
12811;DHT22;6470;47.654;7.896;2023-12-07T17:20:12;2.30;99.90
12811;DHT22;6470;47.654;7.896;2023-12-07T17:25:07;0.80;99.90
12811;DHT22;6470;47.654;7.896;2023-12-07T17:27:33;2.00;99.90
12811;DHT22;6470;47.654;7.896;2023-12-07T17:29:59;2.10;99.90
12811;DHT22;6470;47.654;7.896;2023-12-07T17:32:24;2.50;99.90
12811;DHT22;6470;47.654;7.896;2023-12-07T17:34:51;2.50;99.90
12811;DHT22;6470;47.654;7.896;2023-12-07T17:37:18;2.20;99.90
12811;DHT22;6470;47.654;7.896;2023-12-07T17:42:13;2.40;99.90
12811;DHT22;6470;47.654;7.896;2023-12-07T17:44:39;2.10;99.90
12811;DHT22;6470;47.654;7.896;2023-12-07T17:47:05;2.50;99.90
12811;DHT22;6470;47.654;7.896;2023-12-07T17:49:30;2.80;99.90
12811;DHT22;6470;47.654;7.896;2023-12-07T17:51:57;2.90;99.90
12811;DHT22;6470;47.654;7.896;2023-12-07T17:54:23;-1.40;99.90
12811;DHT22;6470;47.654;7.896;2023-12-07T17:56:52;1.80;99.90
12811;DHT22;6470;47.654;7.896;2023-12-07T17:59:17;2.50;99.90
12811;DHT22;6470;47.654;7.896;2023-12-07T18:01:47;-1.20;99.90
12811;DHT22;6470;47.654;7.896;2023-12-07T18:04:13;2.90;99.90
12811;DHT22;6470;47.654;7.896;2023-12-07T18:06:38;2.90;99.90
12811;DHT22;6470;47.654;7.896;2023-12-07T18:11:30;2.50;99.90
12811;DHT22;6470;47.654;7.896;2023-12-07T18:13:56;2.70;99.90
12811;DHT22;6470;47.654;7.896;2023-12-07T18:18:49;2.70;99.90
12811;DHT22;6470;47.654;7.896;2023-12-07T18:21:15;1.80;99.90
12811;DHT22;6470;47.654;7.896;2023-12-07T18:23:41;3.00;99.90
12811;DHT22;6470;47.654;7.896;2023-12-07T18:26:11;2.70;99.90
12811;DHT22;6470;47.654;7.896;2023-12-07T18:28:37;-1.40;99.90
12811;DHT22;6470;47.654;7.896;2023-12-07T18:31:03;-1.40;99.90
12811;DHT22;6470;47.654;7.896;2023-12-07T18:33:29;2.50;99.90
12811;DHT22;6470;47.654;7.896;2023-12-07T18:35:55;2.20;99.90
12811;DHT22;6470;47.654;7.896;2023-12-07T18:38:21;2.40;99.90
12811;DHT22;6470;47.654;7.896;2023-12-07T18:40:46;2.20;99.90
12811;DHT22;6470;47.654;7.896;2023-12-07T18:43:13;1.40;99.90